Time;durP1;ratioP1;P1;durP2;ratioP2;P2;SDS_P1;SDS_P2;PMS_P1;PMS_P2;Temp;Humidity;BMP_temperature;BMP_pressure;BME280_temperature;BME280_humidity;BME280_pressure;Samples;Min_cycle;Max_cycle;Signal;HPM_P1;HPM_P2
2022/06/17 00:08:03;;;;;;;4.70;2.10;;;21.10;99.90;;;;;;5132162;27;20590;-65
2022/06/17 00:10:30;;;;;;;2.07;1.90;;;21.10;99.90;;;;;;5132037;27;20505;-66
2022/06/17 00:12:57;;;;;;;1.80;1.70;;;21.10;99.90;;;;;;5130592;28;20438;-66
2022/06/17 00:15:23;;;;;;;3.73;1.70;;;21.10;99.90;;;;;;5130478;28;20882;-66
2022/06/17 00:18:01;;;;;;;2.43;1.60;;;21.10;99.90;;;;;;5130812;28;20522;-69
2022/06/17 00:20:30;;;;;;;1.93;1.83;;;21.20;99.90;;;;;;5130716;28;20183;-66
2022/06/17 00:22:56;;;;;;;2.03;1.80;;;21.20;99.90;;;;;;5130494;28;20439;-66
2022/06/17 00:25:32;;;;;;;4.50;1.93;;;21.20;99.90;;;;;;5130852;28;20415;-66
2022/06/17 00:27:58;;;;;;;2.73;1.63;;;21.20;99.90;;;;;;5130899;28;20443;-66
2022/06/17 00:30:31;;;;;;;5.67;1.80;;;21.20;99.90;;;;;;5131967;27;20419;-66
2022/06/17 00:32:59;;;;;;;2.47;2.27;;;21.20;99.90;;;;;;5130507;28;20427;-66
2022/06/17 00:35:36;;;;;;;2.10;1.80;;;21.30;99.90;;;;;;5130496;28;20435;-69
2022/06/17 00:38:16;;;;;;;2.30;2.10;;;21.30;99.90;;;;;;5130596;28;20470;-65
2022/06/17 00:40:45;;;;;;;3.30;1.90;;;21.30;99.90;;;;;;5130144;28;20429;-69
2022/06/17 00:43:30;;;;;;;2.10;1.90;;;21.20;99.90;;;;;;5129896;28;20947;-69
2022/06/17 00:46:18;;;;;;;2.37;2.10;;;21.10;99.90;;;;;;5130143;28;20431;-66
2022/06/17 00:49:13;;;;;;;3.43;2.20;;;21.00;99.90;;;;;;5129949;28;20423;-66
2022/06/17 00:51:57;;;;;;;2.47;2.03;;;21.00;99.90;;;;;;5110564;28;20489;-69
2022/06/17 00:54:28;;;;;;;1.83;1.73;;;21.00;99.90;;;;;;5130304;28;20480;-66
2022/06/17 00:57:00;;;;;;;3.97;2.60;;;21.10;99.90;;;;;;5129816;28;20953;-69
2022/06/17 00:59:33;;;;;;;2.77;1.77;;;21.10;99.90;;;;;;5130397;28;20905;-69
2022/06/17 01:02:05;;;;;;;2.50;2.30;;;21.10;99.90;;;;;;5131584;27;20789;-66
2022/06/17 01:04:40;;;;;;;3.37;1.90;;;21.10;99.90;;;;;;5129871;28;20427;-66
2022/06/17 01:07:20;;;;;;;2.27;1.77;;;21.10;99.90;;;;;;5126689;28;20497;-66
2022/06/17 01:09:58;;;;;;;1.57;1.47;;;21.10;99.90;;;;;;5116213;28;20831;-69
2022/06/17 01:12:54;;;;;;;2.23;2.03;;;21.20;99.90;;;;;;5115719;28;20463;-66
2022/06/17 01:15:27;;;;;;;2.47;2.27;;;21.30;99.90;;;;;;5107805;28;20434;-70
2022/06/17 01:18:01;;;;;;;2.43;1.90;;;21.30;99.90;;;;;;5115779;28;20454;-69
2022/06/17 01:20:40;;;;;;;3.30;1.93;;;21.30;99.90;;;;;;5115940;27;20825;-66
2022/06/17 01:23:19;;;;;;;2.57;1.90;;;21.30;99.90;;;;;;5115619;28;20485;-69
2022/06/17 01:25:47;;;;;;;2.70;2.00;;;21.30;99.90;;;;;;5115521;28;20461;-66
2022/06/17 01:28:17;;;;;;;12.00;2.10;;;21.30;99.90;;;;;;5115829;28;20488;-67
2022/06/17 01:30:50;;;;;;;4.80;2.60;;;21.30;99.90;;;;;;5115666;28;20442;-70
2022/06/17 01:33:40;;;;;;;2.10;1.90;;;21.30;99.90;;;;;;5116900;28;20439;-73
2022/06/17 01:36:28;;;;;;;2.50;2.27;;;21.40;99.90;;;;;;5115443;28;20520;-68
2022/06/17 01:39:13;;;;;;;2.37;2.17;;;21.40;99.90;;;;;;5114929;28;20423;-71
2022/06/17 01:41:43;;;;;;;2.50;2.30;;;21.30;99.90;;;;;;5115391;28;20493;-72
2022/06/17 01:44:43;;;;;;;2.80;2.13;;;21.20;99.90;;;;;;5115763;28;20510;-68
2022/06/17 01:47:20;;;;;;;3.40;2.17;;;21.10;99.90;;;;;;5115304;28;20451;-69
2022/06/17 01:49:53;;;;;;;2.30;2.10;;;21.00;99.90;;;;;;5115433;28;20761;-68
2022/06/17 01:52:35;;;;;;;2.30;2.10;;;21.00;99.90;;;;;;5115223;28;20452;-69
2022/06/17 01:55:15;;;;;;;2.70;2.30;;;20.90;99.90;;;;;;5115187;28;20444;-69
2022/06/17 01:58:14;;;;;;;3.43;2.00;;;21.00;99.90;;;;;;5115488;28;20471;-68
2022/06/17 02:00:50;;;;;;;7.33;2.53;;;21.00;99.90;;;;;;5109303;28;21012;-68
2022/06/17 02:03:30;;;;;;;5.90;2.30;;;21.00;99.90;;;;;;5115148;28;20451;-68
2022/06/17 02:06:25;;;;;;;2.77;2.47;;;21.00;99.90;;;;;;5114948;28;20450;-68
2022/06/17 02:09:03;;;;;;;2.90;2.23;;;21.00;99.90;;;;;;5114950;28;20415;-72
2022/06/17 02:11:33;;;;;;;2.40;2.10;;;21.00;99.90;;;;;;5114874;28;20541;-68
2022/06/17 02:14:06;;;;;;;4.30;2.40;;;21.10;99.90;;;;;;5115201;28;20424;-69
2022/06/17 02:16:52;;;;;;;4.13;2.77;;;21.10;99.90;;;;;;5114672;28;20506;-70
2022/06/17 02:19:20;;;;;;;2.80;2.40;;;21.10;99.90;;;;;;5113725;28;20427;-69
2022/06/17 02:22:24;;;;;;;6.30;2.43;;;21.10;99.90;;;;;;5114626;28;20459;-68
2022/06/17 02:25:06;;;;;;;8.60;2.43;;;21.10;99.90;;;;;;5103222;28;20424;-72
2022/06/17 02:27:34;;;;;;;2.47;2.03;;;21.00;99.90;;;;;;5114731;28;20458;-72
2022/06/17 02:30:13;;;;;;;2.37;2.10;;;21.00;99.90;;;;;;5114554;28;20427;-71
2022/06/17 02:32:56;;;;;;;5.60;2.13;;;21.00;99.90;;;;;;5114356;28;20806;-71
2022/06/17 02:35:42;;;;;;;4.70;2.20;;;21.00;99.90;;;;;;5114095;28;20412;-72
2022/06/17 02:38:28;;;;;;;2.77;2.27;;;21.00;99.90;;;;;;5114162;28;20452;-71
2022/06/17 02:41:06;;;;;;;3.70;2.43;;;21.00;99.90;;;;;;5114619;28;20495;-71
2022/06/17 02:44:03;;;;;;;3.27;2.67;;;21.00;99.90;;;;;;5114329;28;20919;-72
2022/06/17 02:46:40;;;;;;;2.23;2.03;;;20.90;99.90;;;;;;5114321;28;20448;-72
2022/06/17 02:49:12;;;;;;;2.93;2.10;;;20.90;99.90;;;;;;5114323;28;20402;-69
2022/06/17 02:51:55;;;;;;;3.13;2.83;;;20.90;99.90;;;;;;5115810;28;20447;-71
2022/06/17 02:54:30;;;;;;;4.67;2.43;;;20.90;99.90;;;;;;5113996;28;20495;-69
2022/06/17 02:57:03;;;;;;;2.80;2.60;;;20.80;99.90;;;;;;5115127;28;20479;-72
2022/06/17 02:59:32;;;;;;;3.30;2.93;;;20.80;99.90;;;;;;5114201;28;20771;-69
2022/06/17 03:02:15;;;;;;;3.97;2.73;;;20.70;99.90;;;;;;5113720;28;20493;-71
2022/06/17 03:04:58;;;;;;;3.70;2.67;;;20.70;99.90;;;;;;5113606;28;20488;-72
2022/06/17 03:07:37;;;;;;;3.80;2.67;;;20.70;99.90;;;;;;5113381;28;20987;-69
2022/06/17 03:10:12;;;;;;;3.20;2.70;;;20.60;99.90;;;;;;5113522;28;20433;-68
2022/06/17 03:12:58;;;;;;;3.67;3.37;;;20.60;99.90;;;;;;5113554;28;20534;-71
2022/06/17 03:15:26;;;;;;;3.83;3.00;;;20.60;99.90;;;;;;5113465;28;20408;-69
2022/06/17 03:18:09;;;;;;;2.57;2.20;;;20.60;99.90;;;;;;5113442;28;20431;-72
2022/06/17 03:20:49;;;;;;;2.97;2.43;;;20.70;99.90;;;;;;5113505;28;20511;-72
2022/06/17 03:23:47;;;;;;;3.00;2.57;;;20.70;99.90;;;;;;5113328;28;20442;-68
2022/06/17 03:26:17;;;;;;;3.47;2.90;;;20.70;99.90;;;;;;5099062;28;20538;-69
2022/06/17 03:28:56;;;;;;;3.20;2.90;;;20.70;99.90;;;;;;5113604;28;20419;-72
2022/06/17 03:31:42;;;;;;;2.80;2.53;;;20.70;99.90;;;;;;5113129;28;20824;-72
2022/06/17 03:34:30;;;;;;;3.00;2.70;;;20.70;99.90;;;;;;5113356;28;20834;-72
2022/06/17 03:37:15;;;;;;;3.07;2.43;;;20.70;99.90;;;;;;5113359;28;20514;-72
2022/06/17 03:39:49;;;;;;;24.07;17.00;;;20.70;99.90;;;;;;5113148;28;20512;-72
2022/06/17 03:42:25;;;;;;;390.93;169.47;;;20.70;99.90;;;;;;5113539;28;20477;-68
2022/06/17 03:44:57;;;;;;;15.97;14.43;;;20.80;99.90;;;;;;5113322;28;20451;-68
2022/06/17 03:47:28;;;;;;;6.23;5.10;;;20.80;99.90;;;;;;5113293;28;20523;-68
2022/06/17 03:50:05;;;;;;;7.83;5.73;;;20.80;99.90;;;;;;5113091;28;20415;-72
2022/06/17 03:52:48;;;;;;;5.57;3.20;;;20.80;99.90;;;;;;5113280;28;20445;-68
2022/06/17 03:55:32;;;;;;;2.90;2.60;;;20.80;99.90;;;;;;5113028;28;20428;-71
2022/06/17 03:58:02;;;;;;;3.27;2.80;;;20.90;99.90;;;;;;5113230;28;20450;-68
2022/06/17 04:00:37;;;;;;;3.10;2.70;;;20.90;99.90;;;;;;5114222;28;20523;-69
2022/06/17 04:03:13;;;;;;;3.90;2.70;;;20.80;99.90;;;;;;5113254;28;20450;-72
2022/06/17 04:05:52;;;;;;;4.10;2.97;;;20.90;99.90;;;;;;5112578;28;20505;-72
2022/06/17 04:08:24;;;;;;;2.93;2.50;;;20.90;99.90;;;;;;5113069;28;20477;-72
2022/06/17 04:10:53;;;;;;;2.37;2.17;;;20.90;99.90;;;;;;5113207;28;20450;-72
2022/06/17 04:13:25;;;;;;;2.47;2.27;;;20.80;99.90;;;;;;5112679;28;20440;-68
2022/06/17 04:16:04;;;;;;;4.53;2.67;;;20.90;99.90;;;;;;5111129;28;20913;-68
2022/06/17 04:18:35;;;;;;;3.30;2.97;;;20.90;99.90;;;;;;5110737;28;20918;-71
2022/06/17 04:21:05;;;;;;;5.77;3.60;;;20.90;99.90;;;;;;5110894;28;20442;-68
2022/06/17 04:23:34;;;;;;;4.50;3.27;;;20.90;99.90;;;;;;5111035;28;20447;-70
2022/06/17 04:26:16;;;;;;;3.67;2.13;;;20.90;99.90;;;;;;5110433;28;20803;-68
2022/06/17 04:32:31;;;;;;;3.97;3.20;;;20.90;99.90;;;;;;5112372;28;20462;-68
2022/06/17 04:35:02;;;;;;;8.63;3.30;;;21.00;99.90;;;;;;5108602;28;20463;-68
2022/06/17 04:37:29;;;;;;;4.17;2.90;;;21.00;99.90;;;;;;5097405;28;20499;-71
2022/06/17 04:40:01;;;;;;;12.73;8.17;;;21.00;99.90;;;;;;5098234;28;20435;-68
2022/06/17 04:42:43;;;;;;;27.83;13.50;;;21.00;99.90;;;;;;5100244;28;21466;-68
2022/06/17 04:45:31;;;;;;;17.43;10.10;;;21.00;99.90;;;;;;5104051;28;20519;-68
2022/06/17 04:48:10;;;;;;;11.30;5.67;;;21.00;99.90;;;;;;5103386;28;20434;-71
2022/06/17 04:50:37;;;;;;;5.20;3.70;;;21.10;99.90;;;;;;5103957;28;20442;-68
2022/06/17 04:53:06;;;;;;;5.90;3.80;;;21.10;99.90;;;;;;5103072;28;20443;-68
2022/06/17 04:55:54;;;;;;;6.07;3.30;;;21.10;99.90;;;;;;5103759;28;20511;-71
2022/06/17 04:58:25;;;;;;;4.70;3.87;;;21.20;99.90;;;;;;5099618;28;20428;-68
2022/06/17 05:00:55;;;;;;;5.57;3.83;;;21.30;99.90;;;;;;5106092;28;20453;-68
2022/06/17 05:03:26;;;;;;;4.03;2.73;;;21.20;99.90;;;;;;5097792;28;20816;-68
2022/06/17 05:05:53;;;;;;;5.67;3.97;;;21.30;99.90;;;;;;5107680;28;20916;-71
2022/06/17 05:08:33;;;;;;;5.10;3.47;;;21.30;99.90;;;;;;5116125;28;20432;-72
2022/06/17 05:11:31;;;;;;;4.40;2.90;;;21.30;99.90;;;;;;5113711;28;20436;-71
2022/06/17 05:14:08;;;;;;;5.10;3.17;;;21.30;99.90;;;;;;5110797;28;20875;-72
2022/06/17 05:16:54;;;;;;;4.10;3.10;;;21.40;99.90;;;;;;5102049;28;20482;-71
2022/06/17 05:19:34;;;;;;;6.13;3.13;;;21.40;99.90;;;;;;5104770;28;20437;-70
2022/06/17 05:22:13;;;;;;;5.30;3.53;;;21.40;99.90;;;;;;5113497;28;20819;-70
2022/06/17 05:24:41;;;;;;;3.83;3.20;;;21.40;99.90;;;;;;5110249;28;20467;-70
2022/06/17 05:27:22;;;;;;;4.53;3.40;;;21.40;99.90;;;;;;5109722;28;20809;-68
2022/06/17 05:29:49;;;;;;;3.93;3.53;;;21.50;99.90;;;;;;5108973;28;20919;-67
2022/06/17 05:32:29;;;;;;;5.00;3.07;;;21.50;99.90;;;;;;5109037;28;20930;-70
2022/06/17 05:34:57;;;;;;;9.60;5.57;;;21.50;99.90;;;;;;5093235;28;20906;-70
2022/06/17 05:37:34;;;;;;;15.20;7.30;;;21.60;99.90;;;;;;5093819;28;20500;-70
2022/06/17 05:40:01;;;;;;;30.33;16.57;;;21.60;99.90;;;;;;5096690;28;20828;-67
2022/06/17 05:42:28;;;;;;;16.70;9.80;;;21.60;99.90;;;;;;5099794;28;20468;-70
2022/06/17 05:44:54;;;;;;;13.50;5.47;;;21.70;99.90;;;;;;5096851;28;20436;-67
2022/06/17 05:47:22;;;;;;;5.73;3.73;;;21.70;99.90;;;;;;5102115;28;20831;-67
2022/06/17 05:49:55;;;;;;;4.03;3.60;;;21.80;99.90;;;;;;5093128;28;20414;-70
2022/06/17 05:52:32;;;;;;;4.23;3.33;;;21.80;99.90;;;;;;5113109;28;20542;-70
2022/06/17 05:55:04;;;;;;;2.97;2.67;;;21.80;99.90;;;;;;5099916;28;20819;-67
2022/06/17 05:57:39;;;;;;;10.07;4.07;;;21.80;99.90;;;;;;5107000;28;20553;-70
2022/06/17 06:00:06;;;;;;;4.03;3.07;;;21.80;99.90;;;;;;5095266;28;20510;-67
2022/06/17 06:03:12;;;;;;;9.80;3.13;;;21.90;99.90;;;;;;5092489;28;20885;-70
2022/06/17 06:05:43;;;;;;;6.13;3.63;;;21.90;99.90;;;;;;5093793;28;20520;-67
2022/06/17 06:08:13;;;;;;;3.93;2.97;;;21.90;99.90;;;;;;5109118;28;20451;-67
2022/06/17 06:10:47;;;;;;;4.67;2.93;;;22.00;99.90;;;;;;5103558;28;20494;-69
2022/06/17 06:13:22;;;;;;;3.90;2.90;;;22.00;99.90;;;;;;5106447;28;20441;-67
2022/06/17 06:16:10;;;;;;;5.23;2.50;;;22.10;99.90;;;;;;5091010;28;20480;-70
2022/06/17 06:18:45;;;;;;;4.13;2.40;;;22.10;99.90;;;;;;5095918;28;20649;-71
2022/06/17 06:21:38;;;;;;;5.50;2.77;;;22.10;99.90;;;;;;5090861;28;20563;-67
2022/06/17 06:24:10;;;;;;;5.87;3.27;;;22.10;99.90;;;;;;5097264;28;20436;-71
2022/06/17 06:26:36;;;;;;;3.70;3.00;;;22.20;99.90;;;;;;5092764;28;20960;-67
2022/06/17 06:32:57;;;;;;;10.27;6.40;;;22.20;99.90;;;;;;5058964;22;20556;-95
2022/06/17 06:35:26;;;;;;;5.23;3.70;;;22.30;99.90;;;;;;5051363;28;20419;-94
2022/06/17 06:37:53;;;;;;;6.87;4.10;;;22.30;99.90;;;;;;5034889;28;20474;-94
2022/06/17 06:40:19;;;;;;;3.60;2.80;;;22.40;99.90;;;;;;5034807;28;20439;-92
2022/06/17 06:42:47;;;;;;;3.33;2.77;;;22.40;99.90;;;;;;5042907;28;20465;-94
2022/06/17 06:45:23;;;;;;;3.63;3.30;;;22.50;99.90;;;;;;5050738;28;20434;-94
2022/06/17 06:47:51;;;;;;;3.60;2.87;;;22.50;99.90;;;;;;5037206;28;20891;-92
2022/06/17 06:50:20;;;;;;;6.27;3.80;;;22.60;99.90;;;;;;5048004;28;20457;-93
2022/06/17 06:52:47;;;;;;;4.47;2.80;;;22.60;99.90;;;;;;5053653;28;20525;-92
2022/06/17 06:55:13;;;;;;;186.20;24.67;;;22.70;99.90;;;;;;5058398;28;20423;-94
2022/06/17 06:58:06;;;;;;;99.60;33.07;;;22.70;99.90;;;;;;5056876;28;20486;-93
2022/06/17 07:00:37;;;;;;;27.10;5.77;;;22.80;99.90;;;;;;5040490;28;20414;-93
2022/06/17 07:03:03;;;;;;;24.40;5.20;;;22.90;99.90;;;;;;5053647;28;20478;-93
2022/06/17 07:05:30;;;;;;;8.77;3.87;;;23.00;99.90;;;;;;5045160;28;20469;-93
2022/06/17 07:07:57;;;;;;;44.57;9.90;;;23.00;99.90;;;;;;5045506;28;20492;-92
2022/06/17 07:10:26;;;;;;;21.73;7.03;;;23.10;99.90;;;;;;5051441;28;20415;-92
2022/06/17 07:12:53;;;;;;;6.93;3.50;;;23.10;99.90;;;;;;5051754;28;20460;-92
2022/06/17 07:15:19;;;;;;;11.57;4.67;;;23.20;99.90;;;;;;5052715;28;20418;-93
2022/06/17 07:18:01;;;;;;;5.67;3.30;;;23.20;99.90;;;;;;5053110;28;20514;-96
2022/06/17 07:20:42;;;;;;;8.47;3.20;;;23.30;99.90;;;;;;5065538;28;20419;-94
2022/06/17 07:23:11;;;;;;;4.20;3.17;;;23.30;99.90;;;;;;5053284;28;20497;-92
2022/06/17 07:25:38;;;;;;;4.53;2.60;;;23.30;99.90;;;;;;5053038;28;20423;-92
2022/06/17 07:28:04;;;;;;;3.70;2.73;;;23.40;99.90;;;;;;5060478;28;20505;-91
2022/06/17 07:30:32;;;;;;;3.40;2.50;;;23.40;99.90;;;;;;5059862;28;20422;-93
2022/06/17 07:32:59;;;;;;;4.10;3.10;;;23.40;99.90;;;;;;5050875;28;20467;-91
2022/06/17 07:35:26;;;;;;;3.20;2.70;;;23.50;99.90;;;;;;5050979;28;20431;-94
2022/06/17 07:40:39;;;;;;;3.43;2.50;;;23.50;99.90;;;;;;5062909;28;20436;-94
2022/06/17 07:43:05;;;;;;;3.50;3.17;;;23.50;99.90;;;;;;5023797;28;20466;-94
2022/06/17 07:45:32;;;;;;;3.30;2.87;;;23.50;99.90;;;;;;5017768;28;20413;-96
2022/06/17 07:47:59;;;;;;;3.13;2.60;;;23.60;99.90;;;;;;5017328;28;20471;-94
2022/06/17 07:50:28;;;;;;;3.90;2.57;;;23.60;99.90;;;;;;5025655;28;20426;-92
2022/06/17 07:52:54;;;;;;;6.63;3.50;;;23.60;99.90;;;;;;5036291;28;20893;-92
2022/06/17 07:55:21;;;;;;;3.17;2.50;;;23.60;99.90;;;;;;5037120;28;20427;-89
2022/06/17 07:57:47;;;;;;;2.90;2.50;;;23.70;99.90;;;;;;5037095;28;20546;-93
2022/06/17 08:00:21;;;;;;;6.17;2.60;;;23.70;99.90;;;;;;5050593;28;20468;-92
2022/06/17 08:02:47;;;;;;;3.63;2.50;;;23.70;99.90;;;;;;5037543;28;20461;-92
2022/06/17 08:05:13;;;;;;;2.20;2.00;;;23.70;99.90;;;;;;5036239;28;20466;-92
2022/06/17 08:07:39;;;;;;;2.10;1.90;;;23.80;99.90;;;;;;5035647;28;20211;-94
2022/06/17 08:10:05;;;;;;;2.63;2.07;;;23.80;99.90;;;;;;5019767;28;20409;-92
2022/06/17 08:12:31;;;;;;;2.27;2.07;;;23.80;99.90;;;;;;5065548;28;20569;-92
2022/06/17 08:14:56;;;;;;;2.87;1.70;;;23.90;99.90;;;;;;5049292;28;20516;-92
2022/06/17 08:17:23;;;;;;;2.57;2.37;;;24.00;99.90;;;;;;5048129;28;20316;-92
2022/06/17 08:19:52;;;;;;;4.10;1.90;;;24.00;99.90;;;;;;5049586;28;20204;-91
2022/06/17 08:22:19;;;;;;;1.87;1.73;;;24.00;99.90;;;;;;5048898;28;20542;-92
2022/06/17 08:24:44;;;;;;;6.80;2.13;;;24.10;99.90;;;;;;5056488;28;20418;-92
2022/06/17 08:27:10;;;;;;;1.63;1.47;;;24.10;99.90;;;;;;5037397;28;20456;-93
2022/06/17 08:29:36;;;;;;;2.60;1.80;;;24.20;99.90;;;;;;5044501;28;20257;-92
2022/06/17 08:34:46;;;;;;;5.50;1.93;;;24.20;99.90;;;;;;5062316;28;20182;-91
2022/06/17 08:37:13;;;;;;;1.80;1.60;;;24.30;99.90;;;;;;5058922;28;20496;-92
2022/06/17 08:39:40;;;;;;;2.30;2.10;;;24.30;99.90;;;;;;5058487;28;20411;-92
2022/06/17 08:42:35;;;;;;;2.00;1.90;;;24.30;99.90;;;;;;5048743;28;20543;-91
2022/06/17 08:45:07;;;;;;;6.10;2.30;;;24.40;99.90;;;;;;5039124;28;20462;-91
2022/06/17 08:48:05;;;;;;;2.17;1.97;;;24.40;99.90;;;;;;5054604;28;20477;-92
2022/06/17 08:50:49;;;;;;;2.13;1.90;;;24.40;99.90;;;;;;5037484;28;20965;-91
2022/06/17 08:53:23;;;;;;;2.00;1.77;;;24.40;99.90;;;;;;5053233;28;20468;-91
2022/06/17 08:56:03;;;;;;;3.07;2.53;;;24.50;99.90;;;;;;5046930;28;20472;-93
2022/06/17 08:58:46;;;;;;;3.10;2.27;;;24.60;99.90;;;;;;5066827;28;20428;-92
2022/06/17 09:01:19;;;;;;;3.20;2.30;;;24.60;99.90;;;;;;5062416;28;20430;-91
2022/06/17 09:04:07;;;;;;;2.00;1.80;;;24.60;99.90;;;;;;5058272;28;21165;-91
2022/06/17 09:06:52;;;;;;;2.17;1.97;;;24.70;99.90;;;;;;5045637;28;20483;-92
2022/06/17 09:09:54;;;;;;;2.97;2.00;;;24.80;99.90;;;;;;5040216;28;20453;-91
2022/06/17 09:12:46;;;;;;;2.37;1.90;;;24.80;99.90;;;;;;5040267;28;20473;-92
2022/06/17 09:15:33;;;;;;;3.67;1.80;;;24.90;99.90;;;;;;5025918;28;20503;-93
2022/06/17 09:18:07;;;;;;;1.67;1.57;;;24.90;99.90;;;;;;5038360;28;20481;-92
2022/06/17 09:20:40;;;;;;;1.53;1.43;;;24.90;99.90;;;;;;5038612;28;20439;-93
2022/06/17 09:23:09;;;;;;;3.07;1.87;;;25.00;99.90;;;;;;5042903;28;20464;-92
2022/06/17 09:25:40;;;;;;;2.03;1.80;;;25.00;99.90;;;;;;5041841;28;20422;-93
2022/06/17 09:28:12;;;;;;;2.00;1.80;;;25.10;99.90;;;;;;5041654;28;20492;-93
2022/06/17 09:30:44;;;;;;;1.90;1.70;;;25.20;99.90;;;;;;5044848;28;20431;-92
2022/06/17 09:33:23;;;;;;;1.97;1.77;;;25.20;99.90;;;;;;5034431;28;20478;-92
2022/06/17 09:36:13;;;;;;;1.87;1.77;;;25.40;99.90;;;;;;5057678;28;20428;-92
2022/06/17 09:39:33;;;;;;;1.70;1.57;;;25.50;99.90;;;;;;5066471;28;20403;-94
2022/06/17 09:42:06;;;;;;;2.07;1.90;;;25.50;99.90;;;;;;4975253;28;20520;-93
2022/06/17 09:44:45;;;;;;;2.57;1.97;;;25.60;99.90;;;;;;4975603;28;20442;-93
2022/06/17 09:47:42;;;;;;;2.60;2.00;;;25.60;99.90;;;;;;5037509;28;20497;-94
2022/06/17 09:50:21;;;;;;;2.10;1.90;;;25.60;99.90;;;;;;5024789;28;20426;-93
2022/06/17 09:52:53;;;;;;;2.30;2.10;;;25.70;99.90;;;;;;5054585;28;20549;-94
2022/06/17 09:55:25;;;;;;;2.37;1.90;;;25.80;99.90;;;;;;5030766;28;20439;-92
2022/06/17 09:58:21;;;;;;;2.10;1.93;;;25.80;99.90;;;;;;5057131;28;20481;-93
2022/06/17 10:00:54;;;;;;;2.07;1.90;;;25.80;99.90;;;;;;5049527;28;20423;-94
2022/06/17 10:03:27;;;;;;;2.50;2.30;;;25.90;99.90;;;;;;5042942;28;20454;-93
2022/06/17 10:06:24;;;;;;;2.93;2.63;;;25.90;99.90;;;;;;5024542;28;20430;-94
2022/06/17 10:09:23;;;;;;;2.53;2.33;;;25.90;99.90;;;;;;5043024;28;20694;-93
2022/06/17 10:12:05;;;;;;;2.47;2.27;;;26.00;99.90;;;;;;5033895;28;20469;-91
2022/06/17 10:14:59;;;;;;;2.10;1.90;;;26.00;99.90;;;;;;5035472;28;20426;-94
2022/06/17 10:20:15;;;;;;;2.70;1.80;;;26.00;99.90;;;;;;5053082;28;20488;-93
2022/06/17 10:22:41;;;;;;;2.00;1.90;;;26.10;99.90;;;;;;5035117;28;20545;-93
2022/06/17 10:25:34;;;;;;;2.40;2.30;;;26.10;99.90;;;;;;5051784;28;20520;-92
2022/06/17 10:28:24;;;;;;;2.03;1.93;;;26.10;99.90;;;;;;5053074;28;20942;-93
2022/06/17 10:31:15;;;;;;;2.67;2.20;;;26.20;99.90;;;;;;5052424;28;20754;-92
2022/06/17 10:33:41;;;;;;;3.77;2.17;;;26.20;99.90;;;;;;5044400;28;20454;-93
2022/06/17 10:36:07;;;;;;;2.70;2.50;;;26.30;99.90;;;;;;5048657;28;20541;-94
2022/06/17 10:38:41;;;;;;;2.10;2.00;;;26.40;99.90;;;;;;5083384;28;20418;-94
2022/06/17 10:41:10;;;;;;;3.70;2.00;;;26.40;99.90;;;;;;5047789;28;20511;-92
2022/06/17 10:43:41;;;;;;;2.40;2.20;;;26.40;99.90;;;;;;5063129;28;20450;-93
2022/06/17 10:46:16;;;;;;;4.10;2.13;;;26.50;99.90;;;;;;5076512;28;20418;-93
2022/06/17 10:48:53;;;;;;;2.73;1.97;;;26.50;99.90;;;;;;5034618;28;20485;-93
2022/06/17 10:51:19;;;;;;;2.57;2.37;;;26.60;99.90;;;;;;5039067;28;20458;-93
2022/06/17 10:53:56;;;;;;;2.13;2.03;;;26.60;99.90;;;;;;5041482;28;20476;-90
2022/06/17 10:56:31;;;;;;;2.93;2.47;;;26.60;99.90;;;;;;5068802;28;20568;-94
2022/06/17 10:59:00;;;;;;;2.60;2.40;;;26.70;99.90;;;;;;5046274;28;20456;-92
2022/06/17 11:01:48;;;;;;;2.40;2.20;;;26.70;99.90;;;;;;5050381;28;20500;-93
2022/06/17 11:04:28;;;;;;;2.73;2.43;;;26.80;99.90;;;;;;5053571;28;20450;-92
2022/06/17 11:07:18;;;;;;;2.53;2.33;;;26.80;99.90;;;;;;5030715;28;20446;-93
2022/06/17 11:09:55;;;;;;;1.90;1.80;;;26.90;99.90;;;;;;5036952;28;20418;-93
2022/06/17 11:12:34;;;;;;;2.10;1.90;;;26.90;99.90;;;;;;5032441;28;20458;-92
2022/06/17 11:15:05;;;;;;;2.20;2.07;;;26.90;99.90;;;;;;5036979;28;20500;-91
2022/06/17 11:17:44;;;;;;;5.60;2.30;;;27.00;99.90;;;;;;5042267;28;20588;-92
2022/06/17 11:20:24;;;;;;;3.00;2.70;;;27.00;99.90;;;;;;5039903;28;20437;-92
2022/06/17 11:22:56;;;;;;;2.17;2.03;;;27.00;99.90;;;;;;5065047;28;20532;-93
2022/06/17 11:25:50;;;;;;;3.03;2.37;;;27.10;99.90;;;;;;5040906;28;20427;-92
2022/06/17 11:28:25;;;;;;;1.93;1.83;;;27.10;99.90;;;;;;5032255;28;20550;-93
2022/06/17 11:30:53;;;;;;;2.40;2.20;;;27.10;99.90;;;;;;5039945;28;20421;-91
2022/06/17 11:33:24;;;;;;;2.63;2.43;;;27.10;99.90;;;;;;5026515;28;20471;-92
2022/06/17 11:36:18;;;;;;;1.83;1.73;;;27.10;99.90;;;;;;5053270;28;20482;-93
2022/06/17 11:38:45;;;;;;;2.13;1.77;;;27.00;99.90;;;;;;5035682;28;20449;-92
2022/06/17 11:41:17;;;;;;;2.00;1.70;;;26.90;99.90;;;;;;5046172;28;20407;-93
2022/06/17 11:43:44;;;;;;;2.00;1.80;;;26.90;99.90;;;;;;5036447;28;20431;-92
2022/06/17 11:46:13;;;;;;;2.23;2.03;;;26.90;99.90;;;;;;5039406;28;20456;-94
2022/06/17 11:48:47;;;;;;;3.23;2.20;;;26.90;99.90;;;;;;5027509;28;20443;-94
2022/06/17 11:51:17;;;;;;;1.90;1.70;;;26.90;99.90;;;;;;5034774;28;20411;-95
2022/06/17 11:53:53;;;;;;;1.80;1.70;;;26.90;99.90;;;;;;5033111;28;20439;-96
2022/06/17 11:56:38;;;;;;;3.37;2.17;;;27.00;98.80;;;;;;5026393;28;20526;-93
2022/06/17 11:59:20;;;;;;;2.03;1.93;;;27.00;99.90;;;;;;5031597;28;20771;-95
2022/06/17 12:01:58;;;;;;;2.27;2.07;;;27.00;99.90;;;;;;5014512;28;20485;-93
2022/06/17 12:04:51;;;;;;;2.20;2.00;;;27.00;99.90;;;;;;5014560;28;20426;-94
2022/06/17 12:07:42;;;;;;;2.27;2.17;;;27.00;99.90;;;;;;5015725;28;20455;-96
2022/06/17 12:10:37;;;;;;;1.70;1.60;;;26.90;99.90;;;;;;5021817;28;20432;-95
2022/06/17 12:13:29;;;;;;;2.33;1.97;;;26.90;99.90;;;;;;5040047;28;20455;-95
2022/06/17 12:16:01;;;;;;;6.33;2.17;;;26.90;99.90;;;;;;5031956;28;20441;-95
2022/06/17 12:18:34;;;;;;;1.87;1.77;;;26.90;99.90;;;;;;5043930;28;20438;-93
2022/06/17 12:21:22;;;;;;;2.70;1.90;;;26.90;99.50;;;;;;5028206;28;20416;-94
2022/06/17 12:23:58;;;;;;;2.93;1.87;;;27.00;99.90;;;;;;5034599;28;21299;-93
2022/06/17 12:26:39;;;;;;;2.93;2.10;;;27.00;99.90;;;;;;5019643;28;20470;-93
2022/06/17 12:29:15;;;;;;;2.37;1.90;;;27.10;99.30;;;;;;5017701;28;20417;-94
2022/06/17 12:31:44;;;;;;;2.40;2.20;;;27.10;98.30;;;;;;5044548;28;20490;-96
2022/06/17 12:34:43;;;;;;;2.57;1.80;;;27.20;97.50;;;;;;5038665;28;20469;-94
2022/06/17 12:37:49;;;;;;;2.23;2.03;;;27.20;98.70;;;;;;5037394;28;20513;-96
2022/06/17 12:40:19;;;;;;;1.97;1.80;;;27.30;98.40;;;;;;5038242;28;20488;-95
2022/06/17 12:43:05;;;;;;;2.43;2.00;;;27.30;98.70;;;;;;5053538;28;20451;-94
2022/06/17 12:45:53;;;;;;;2.00;1.90;;;27.30;99.10;;;;;;5065029;28;20468;-94
2022/06/17 12:48:34;;;;;;;2.50;2.30;;;27.30;98.60;;;;;;5053595;28;20470;-96
2022/06/17 12:54:46;;;;;;;2.73;2.50;;;27.30;99.10;;;;;;4963826;28;20446;-94
2022/06/17 12:57:39;;;;;;;3.77;2.43;;;27.30;98.30;;;;;;5046924;28;21014;-94
2022/06/17 13:00:14;;;;;;;2.27;2.07;;;27.30;98.90;;;;;;5037539;28;20472;-94
2022/06/17 13:03:15;;;;;;;2.43;2.23;;;27.30;99.00;;;;;;5060845;28;20438;-95
2022/06/17 13:05:44;;;;;;;2.27;2.10;;;27.30;98.70;;;;;;5019748;28;20441;-96
2022/06/17 13:08:34;;;;;;;4.33;2.40;;;27.40;98.30;;;;;;5042805;28;20468;-96
2022/06/17 13:11:19;;;;;;;2.40;2.20;;;27.30;98.90;;;;;;5070167;28;20421;-96
2022/06/17 13:14:09;;;;;;;3.53;2.37;;;27.30;97.80;;;;;;5054092;28;20577;-96
2022/06/17 13:16:54;;;;;;;2.03;1.83;;;27.30;97.90;;;;;;5040301;28;20504;-94
2022/06/17 13:19:39;;;;;;;2.23;2.03;;;27.40;98.40;;;;;;5034608;28;20422;-94
2022/06/17 13:22:25;;;;;;;2.00;1.90;;;27.40;98.60;;;;;;5041148;28;20476;-94
2022/06/17 13:25:05;;;;;;;2.33;2.13;;;27.40;97.60;;;;;;5039783;28;20436;-95
2022/06/17 13:27:45;;;;;;;3.10;2.40;;;27.40;98.60;;;;;;5036227;28;20828;-96
2022/06/17 13:30:23;;;;;;;2.47;2.27;;;27.40;98.50;;;;;;5042271;28;20410;-94
2022/06/17 13:33:03;;;;;;;4.03;2.33;;;27.40;98.50;;;;;;5040701;28;20478;-95
2022/06/17 13:35:49;;;;;;;3.10;2.23;;;27.40;97.90;;;;;;5041349;28;20422;-96
2022/06/17 13:38:24;;;;;;;2.50;2.30;;;27.40;98.40;;;;;;5041724;28;20502;-93
2022/06/17 13:41:12;;;;;;;3.97;2.30;;;27.40;98.80;;;;;;5054930;28;20422;-95
2022/06/17 13:44:35;;;;;;;2.60;2.40;;;27.30;98.90;;;;;;5050161;28;20469;-96
2022/06/17 13:47:26;;;;;;;3.63;3.10;;;27.20;98.80;;;;;;5056952;28;20462;-96
2022/06/17 13:50:20;;;;;;;4.60;2.90;;;26.90;99.30;;;;;;5037172;28;20476;-95
2022/06/17 13:53:15;;;;;;;3.27;2.97;;;26.60;99.40;;;;;;5037629;28;20498;-95
2022/06/17 13:56:15;;;;;;;2.60;2.30;;;26.50;99.70;;;;;;5046129;28;20442;-93
2022/06/17 13:58:57;;;;;;;2.73;2.53;;;26.30;99.70;;;;;;5037283;28;20450;-94
2022/06/17 14:01:28;;;;;;;2.60;2.40;;;26.20;98.80;;;;;;5056614;28;20493;-92
2022/06/17 14:03:54;;;;;;;2.53;2.17;;;26.20;99.60;;;;;;5039303;28;20426;-92